createdAt,value
2022-09-12T00:01:42.411Z,4.07
2022-09-12T00:04:11.848Z,4.75
2022-09-12T00:06:40.289Z,2.90
2022-09-12T00:09:12.691Z,4.00
2022-09-12T00:11:46.652Z,3.88
2022-09-12T00:14:18.396Z,5.55
2022-09-12T00:16:46.962Z,3.25
2022-09-12T00:19:15.266Z,5.20
2022-09-12T00:21:43.479Z,3.40
2022-09-12T00:24:11.547Z,5.45
2022-09-12T00:26:40.206Z,3.83
2022-09-12T00:29:08.386Z,3.20
2022-09-12T00:31:36.755Z,6.38
2022-09-12T00:34:05.140Z,2.53
2022-09-12T00:36:33.400Z,3.10
2022-09-12T00:39:01.200Z,3.55
2022-09-12T00:41:37.593Z,2.83
2022-09-12T00:44:23.144Z,3.55
2022-09-12T00:47:14.381Z,3.17
2022-09-12T00:52:52.571Z,2.20
2022-09-12T00:55:35.807Z,3.13
2022-09-12T00:58:20.851Z,3.83
2022-09-12T01:00:49.485Z,4.73
2022-09-12T01:03:22.411Z,2.42
2022-09-12T01:06:21.816Z,3.60
2022-09-12T01:08:51.416Z,2.60
2022-09-12T01:11:21.663Z,3.17
2022-09-12T01:13:50.880Z,4.22
2022-09-12T01:16:19.963Z,3.75
2022-09-12T01:19:12.665Z,5.53
2022-09-12T01:22:19.149Z,2.58
2022-09-12T01:25:48.789Z,3.10
2022-09-12T01:29:15.289Z,2.92
2022-09-12T01:31:52.379Z,3.78
2022-09-12T01:34:46.712Z,3.90
2022-09-12T01:37:31.468Z,2.60
2022-09-12T01:40:21.577Z,3.95
2022-09-12T01:43:17.603Z,4.10
2022-09-12T01:46:15.197Z,2.83
2022-09-12T01:48:57.213Z,3.45
2022-09-12T01:51:39.934Z,2.85
2022-09-12T01:54:40.338Z,2.60
2022-09-12T01:57:28.529Z,2.93
2022-09-12T02:00:06.876Z,2.60
2022-09-12T02:03:04.077Z,2.60
2022-09-12T02:05:37.832Z,3.63
2022-09-12T02:08:33.032Z,2.45
2022-09-12T02:11:08.535Z,3.33
2022-09-12T02:13:49.572Z,2.58
2022-09-12T02:16:40.729Z,3.08
2022-09-12T02:19:20.034Z,3.10
2022-09-12T02:22:05.348Z,3.13
2022-09-12T02:24:48.081Z,3.75
2022-09-12T02:27:30.010Z,3.65
2022-09-12T02:29:58.219Z,3.33
2022-09-12T02:32:49.459Z,3.10
2022-09-12T02:35:48.907Z,3.42
2022-09-12T02:38:47.095Z,4.03
2022-09-12T02:41:20.050Z,4.03
2022-09-12T02:43:50.551Z,3.35
2022-09-12T02:46:26.758Z,3.00
2022-09-12T02:48:55.854Z,2.72
2022-09-12T02:51:24.263Z,2.08
2022-09-12T02:53:53.373Z,2.53
2022-09-12T02:56:30.301Z,3.80
2022-09-12T02:59:07.524Z,2.50
2022-09-12T03:05:27.229Z,3.67
2022-09-12T03:08:20.533Z,2.50
2022-09-12T03:11:31.387Z,3.83
2022-09-12T03:14:12.177Z,2.70
2022-09-12T03:17:20.115Z,3.65
2022-09-12T03:20:31.908Z,3.22
2022-09-12T03:23:39.094Z,2.85
2022-09-12T03:26:17.050Z,3.33
2022-09-12T03:28:47.739Z,5.32
2022-09-12T03:31:18.975Z,3.47
2022-09-12T03:33:46.878Z,5.22
2022-09-12T03:36:27.509Z,2.97
2022-09-12T03:38:55.967Z,2.13
2022-09-12T03:41:24.156Z,6.32
2022-09-12T03:43:52.454Z,3.63
2022-09-12T03:46:20.614Z,2.42
2022-09-12T03:48:48.460Z,2.55
2022-09-12T03:51:16.926Z,2.67
2022-09-12T03:53:45.138Z,2.95
2022-09-12T03:56:13.832Z,3.78
2022-09-12T03:58:42.258Z,5.13
2022-09-12T04:01:16.622Z,3.92
2022-09-12T04:03:48.532Z,3.78
2022-09-12T04:06:21.604Z,3.13
2022-09-12T04:08:53.090Z,4.38
2022-09-12T04:11:23.099Z,3.58
2022-09-12T04:13:51.493Z,3.83
2022-09-12T04:16:21.201Z,2.75
2022-09-12T04:18:49.543Z,2.88
2022-09-12T04:21:21.738Z,2.72
2022-09-12T04:23:50.207Z,5.07
2022-09-12T04:26:20.802Z,3.33
2022-09-12T04:28:53.654Z,3.63
2022-09-12T04:31:22.654Z,3.17
2022-09-12T04:34:00.941Z,2.83
2022-09-12T04:36:29.800Z,3.65
2022-09-12T04:38:58.726Z,4.85
2022-09-12T04:41:31.935Z,3.60
2022-09-12T04:44:10.249Z,4.38
2022-09-12T04:46:43.487Z,4.20
2022-09-12T04:49:14.111Z,5.68
2022-09-12T04:51:43.528Z,6.05
2022-09-12T04:54:17.196Z,4.30
2022-09-12T04:56:48.863Z,3.47
2022-09-12T04:59:20.031Z,5.47
2022-09-12T05:04:16.938Z,3.95
2022-09-12T05:06:47.331Z,3.78
2022-09-12T05:09:16.418Z,5.18
2022-09-12T05:14:34.533Z,6.72
2022-09-12T05:17:04.151Z,5.40
2022-09-12T05:19:32.947Z,4.20
2022-09-12T05:22:02.453Z,6.35
2022-09-12T05:24:30.613Z,5.25
2022-09-12T05:26:59.188Z,5.50
2022-09-12T05:29:27.500Z,6.70
2022-09-12T05:31:55.683Z,9.05
2022-09-12T05:34:23.961Z,8.00
2022-09-12T05:36:52.223Z,7.05
2022-09-12T05:39:20.640Z,7.38
2022-09-12T05:41:48.845Z,6.70
2022-09-12T05:44:17.759Z,8.43
2022-09-12T05:46:50.337Z,7.10
2022-09-12T05:49:18.744Z,5.15
2022-09-12T05:51:47.243Z,6.50
2022-09-12T05:54:19.324Z,5.88
2022-09-12T05:56:48.811Z,9.18
2022-09-12T05:59:21.732Z,8.50
2022-09-12T06:01:50.122Z,7.63
2022-09-12T06:04:18.384Z,10.35
2022-09-12T06:06:47.055Z,7.78
2022-09-12T06:09:18.344Z,10.13
2022-09-12T06:11:47.135Z,9.48
2022-09-12T06:14:17.665Z,7.95
2022-09-12T06:16:47.163Z,14.82
2022-09-12T06:19:21.847Z,8.27
2022-09-12T06:21:51.613Z,11.85
2022-09-12T06:24:21.142Z,12.52
2022-09-12T06:26:51.871Z,14.43
2022-09-12T06:29:20.450Z,13.18
2022-09-12T06:31:48.242Z,14.00
2022-09-12T06:36:48.915Z,13.38
2022-09-12T06:39:20.911Z,11.73
2022-09-12T06:41:51.638Z,12.85
2022-09-12T06:44:22.444Z,12.90
2022-09-12T06:46:50.877Z,9.65
2022-09-12T06:49:19.081Z,9.88
2022-09-12T06:51:46.850Z,12.88
2022-09-12T06:54:17.021Z,15.02
2022-09-12T06:56:45.791Z,10.07
2022-09-12T06:59:14.065Z,13.20
2022-09-12T07:01:42.636Z,11.90
2022-09-12T07:04:11.515Z,16.83
2022-09-12T07:06:42.096Z,13.15
2022-09-12T07:09:16.197Z,10.35
2022-09-12T07:11:46.393Z,10.77
2022-09-12T07:14:15.270Z,11.77
2022-09-12T07:16:43.665Z,11.48
2022-09-12T07:19:14.833Z,8.38
2022-09-12T07:24:11.242Z,9.13
2022-09-12T07:26:41.832Z,9.05
2022-09-12T07:29:35.959Z,10.45
2022-09-12T07:32:05.817Z,15.82
2022-09-12T07:34:35.743Z,14.93
2022-09-12T07:37:04.487Z,10.70
2022-09-12T07:39:33.244Z,11.90
2022-09-12T07:42:01.664Z,11.25
2022-09-12T07:44:30.298Z,8.68
2022-09-12T07:46:58.500Z,8.55
2022-09-12T07:49:26.643Z,10.43
2022-09-12T07:51:56.567Z,7.93
2022-09-12T07:54:24.892Z,8.97
2022-09-12T07:56:53.139Z,6.10
2022-09-12T07:59:41.378Z,7.93
2022-09-12T08:02:17.338Z,8.60
2022-09-12T08:04:47.952Z,7.63
2022-09-12T08:07:17.999Z,8.98
2022-09-12T08:09:46.552Z,7.53
2022-09-12T08:12:16.538Z,7.68
2022-09-12T08:14:45.418Z,7.90
2022-09-12T08:17:14.369Z,6.65
2022-09-12T08:19:42.723Z,7.50
2022-09-12T08:22:11.510Z,12.82
2022-09-12T08:24:39.704Z,7.78
2022-09-12T08:27:08.450Z,5.57
2022-09-12T08:29:36.770Z,4.68
2022-09-12T08:32:05.131Z,8.52
2022-09-12T08:34:36.109Z,5.60
2022-09-12T08:37:04.411Z,5.20
2022-09-12T08:39:33.195Z,5.28
2022-09-12T08:42:06.706Z,5.97
2022-09-12T08:44:46.879Z,6.78
2022-09-12T08:47:23.864Z,5.20
2022-09-12T08:50:10.094Z,6.00
2022-09-12T08:53:05.011Z,6.88
2022-09-12T08:55:45.045Z,9.35
2022-09-12T08:58:24.755Z,7.40
2022-09-12T09:01:28.822Z,5.63
2022-09-12T09:04:48.230Z,4.80
2022-09-12T09:07:58.245Z,5.45
2022-09-12T09:11:13.851Z,9.73
2022-09-12T09:14:50.043Z,6.90
2022-09-12T09:17:46.561Z,5.78
2022-09-12T09:20:45.603Z,6.20
2022-09-12T09:23:20.237Z,8.45
2022-09-12T09:26:37.461Z,5.78
2022-09-12T09:29:20.157Z,6.47
2022-09-12T09:31:55.154Z,6.32
2022-09-12T09:34:30.042Z,8.23
2022-09-12T09:37:19.648Z,7.85
2022-09-12T09:40:27.546Z,6.30
2022-09-12T09:43:13.634Z,6.20
2022-09-12T09:45:44.599Z,6.03
2022-09-12T09:48:23.532Z,7.95
2022-09-12T09:50:52.291Z,7.35
2022-09-12T09:53:54.833Z,8.25
2022-09-12T09:56:37.069Z,6.68
2022-09-12T09:59:28.786Z,5.57
2022-09-12T10:02:24.201Z,8.43
2022-09-12T10:04:59.672Z,6.88
2022-09-12T10:07:28.179Z,8.93
2022-09-12T10:10:18.672Z,7.50
2022-09-12T10:12:47.011Z,6.05
2022-09-12T10:15:26.484Z,6.95
2022-09-12T10:17:59.598Z,4.68
2022-09-12T10:20:45.862Z,7.93
2022-09-12T10:23:30.660Z,6.47
2022-09-12T10:26:01.879Z,6.80
2022-09-12T10:28:54.978Z,5.40
2022-09-12T10:31:43.141Z,7.90
2022-09-12T10:34:33.424Z,7.22
2022-09-12T10:37:39.844Z,6.95
2022-09-12T10:40:26.483Z,5.70
2022-09-12T10:42:58.993Z,7.65
2022-09-12T10:45:35.664Z,8.63
2022-09-12T10:48:32.520Z,7.53
2022-09-12T10:51:01.459Z,9.82
2022-09-12T10:53:40.755Z,5.72
2022-09-12T10:56:23.085Z,6.95
2022-09-12T10:59:28.324Z,9.98
2022-09-12T11:02:22.087Z,5.60
2022-09-12T11:05:22.745Z,7.38
2022-09-12T11:09:04.446Z,4.47
2022-09-12T11:12:09.723Z,6.63
2022-09-12T11:15:03.491Z,5.63
2022-09-12T11:17:57.254Z,5.43
2022-09-12T11:20:54.345Z,7.32
2022-09-12T11:23:54.119Z,6.95
2022-09-12T11:26:40.700Z,7.27
2022-09-12T11:29:47.912Z,4.93
2022-09-12T11:33:05.507Z,8.57
2022-09-12T11:35:37.947Z,5.88
2022-09-12T11:39:03.783Z,6.55
2022-09-12T11:41:43.552Z,6.78
2022-09-12T11:44:20.854Z,9.32
2022-09-12T11:46:51.977Z,5.70
2022-09-12T11:49:49.711Z,5.10
2022-09-12T11:52:24.937Z,9.48
2022-09-12T11:55:12.054Z,6.03
2022-09-12T11:57:58.932Z,5.30
2022-09-12T12:00:53.358Z,5.70
2022-09-12T12:03:48.290Z,5.38
2022-09-12T12:07:06.032Z,4.50
2022-09-12T12:09:34.698Z,5.38
2022-09-12T12:12:08.401Z,5.55
2022-09-12T12:14:48.937Z,6.80
2022-09-12T12:17:21.637Z,5.85
2022-09-12T12:20:05.805Z,3.35
2022-09-12T12:22:36.051Z,5.45
2022-09-12T12:25:29.026Z,4.13
2022-09-12T12:28:06.193Z,5.03
2022-09-12T12:30:54.104Z,2.97
2022-09-12T12:33:22.263Z,4.00
2022-09-12T12:35:59.399Z,4.00
2022-09-12T12:38:41.268Z,3.53
2022-09-12T12:41:18.565Z,3.75
2022-09-12T12:43:52.475Z,4.25
2022-09-12T12:46:26.075Z,6.60
2022-09-12T12:49:24.495Z,4.25
2022-09-12T12:52:01.476Z,3.90
2022-09-12T12:54:42.019Z,3.78
2022-09-12T12:57:41.202Z,3.80
2022-09-12T13:00:29.913Z,3.70
2022-09-12T13:03:30.327Z,4.05
2022-09-12T13:06:41.140Z,4.07
2022-09-12T13:09:28.801Z,6.53
2022-09-12T13:12:08.751Z,3.08
2022-09-12T13:14:42.866Z,2.70
2022-09-12T13:17:44.276Z,5.50
2022-09-12T13:20:33.070Z,2.83
2022-09-12T13:23:01.815Z,2.72
2022-09-12T13:25:37.170Z,2.10
2022-09-12T13:28:18.604Z,3.35
2022-09-12T13:31:15.969Z,3.75
2022-09-12T13:33:54.390Z,2.38
2022-09-12T13:37:18.620Z,3.20
2022-09-12T13:40:05.571Z,3.00
2022-09-12T13:42:50.028Z,5.13
2022-09-12T13:45:29.635Z,3.97
2022-09-12T13:48:02.093Z,3.85
2022-09-12T13:50:46.545Z,3.58
2022-09-12T13:53:19.809Z,5.60
2022-09-12T13:55:59.851Z,4.32
2022-09-12T14:01:05.413Z,3.50
2022-09-12T14:04:00.719Z,3.50
2022-09-12T14:06:29.497Z,3.83
2022-09-12T14:09:00.163Z,3.30
2022-09-12T14:11:33.820Z,4.32
2022-09-12T14:14:07.234Z,4.25
2022-09-12T14:16:40.287Z,3.30
2022-09-12T14:19:12.245Z,4.32
2022-09-12T14:21:40.636Z,3.42
2022-09-12T14:24:12.496Z,2.50
2022-09-12T14:26:42.917Z,3.35
2022-09-12T14:29:16.705Z,2.35
2022-09-12T14:31:50.842Z,5.50
2022-09-12T14:34:19.804Z,3.28
2022-09-12T14:36:55.904Z,2.78
2022-09-12T14:39:37.876Z,1.65
2022-09-12T14:42:22.052Z,3.42
2022-09-12T14:45:01.812Z,3.08
2022-09-12T14:47:40.307Z,2.72
2022-09-12T14:50:22.774Z,2.97
2022-09-12T14:53:25.788Z,2.97
2022-09-12T14:56:22.553Z,3.50
2022-09-12T14:58:50.983Z,2.67
2022-09-12T15:01:19.054Z,4.30
2022-09-12T15:03:49.981Z,4.28
2022-09-12T15:06:47.489Z,2.15
2022-09-12T15:09:15.806Z,2.30
2022-09-12T15:11:43.949Z,4.20
2022-09-12T15:14:15.847Z,1.50
2022-09-12T15:16:44.080Z,2.78
2022-09-12T15:19:12.328Z,4.25
2022-09-12T15:21:40.537Z,2.38
2022-09-12T15:24:09.202Z,2.20
2022-09-12T15:26:37.487Z,2.30
2022-09-12T15:29:05.718Z,2.70
2022-09-12T15:31:33.903Z,2.40
2022-09-12T15:34:03.205Z,2.65
2022-09-12T15:36:31.470Z,2.30
2022-09-12T15:38:59.646Z,2.20
2022-09-12T15:41:36.717Z,2.05
2022-09-12T15:44:07.887Z,2.00
2022-09-12T15:46:36.166Z,1.95
2022-09-12T15:49:04.429Z,2.60
2022-09-12T15:51:32.931Z,2.22
2022-09-12T15:54:04.655Z,3.35
2022-09-12T15:56:32.967Z,2.63
2022-09-12T15:59:01.181Z,2.65
2022-09-12T16:01:29.620Z,2.42
2022-09-12T16:03:58.048Z,4.05
2022-09-12T16:06:27.096Z,3.60
2022-09-12T16:08:55.353Z,5.88
2022-09-12T16:11:27.012Z,3.33
2022-09-12T16:13:56.790Z,4.97
2022-09-12T16:16:35.060Z,2.47
2022-09-12T16:19:04.005Z,1.95
2022-09-12T16:21:32.461Z,2.58
2022-09-12T16:24:00.952Z,1.90
2022-09-12T16:26:29.149Z,2.60
2022-09-12T16:29:00.809Z,2.47
2022-09-12T16:31:29.434Z,2.72
2022-09-12T16:33:57.665Z,2.47
2022-09-12T16:36:28.193Z,2.40
2022-09-12T16:38:56.409Z,3.38
2022-09-12T16:41:25.377Z,2.92
2022-09-12T16:43:54.142Z,2.78
2022-09-12T16:46:30.513Z,2.22
2022-09-12T16:48:59.401Z,3.00
2022-09-12T16:51:33.031Z,1.90
2022-09-12T16:54:01.512Z,3.25
2022-09-12T16:56:30.082Z,2.35
2022-09-12T16:58:58.409Z,1.83
2022-09-12T17:01:27.142Z,2.22
2022-09-12T17:03:58.069Z,3.03
2022-09-12T17:06:27.723Z,3.08
2022-09-12T17:09:04.149Z,3.80
2022-09-12T17:11:38.865Z,2.17
2022-09-12T17:14:08.970Z,1.83
2022-09-12T17:17:11.756Z,2.85
2022-09-12T17:19:40.242Z,1.75
2022-09-12T17:22:08.423Z,2.40
2022-09-12T17:24:36.606Z,3.60
2022-09-12T17:27:04.869Z,1.98
2022-09-12T17:29:34.966Z,1.70
2022-09-12T17:32:03.374Z,2.75
2022-09-12T17:34:31.793Z,2.45
2022-09-12T17:36:59.975Z,3.58
2022-09-12T17:39:28.266Z,2.30
2022-09-12T17:41:57.675Z,3.72
2022-09-12T17:44:25.932Z,1.95
2022-09-12T17:46:54.134Z,2.45
2022-09-12T17:49:28.196Z,2.50
2022-09-12T17:51:56.388Z,2.47
2022-09-12T17:54:24.763Z,3.47
2022-09-12T17:56:52.963Z,6.55
2022-09-12T17:59:24.619Z,5.53
2022-09-12T18:02:11.203Z,3.17
2022-09-12T18:04:41.068Z,2.67
2022-09-12T18:07:09.352Z,5.07
2022-09-12T18:09:37.711Z,3.95
2022-09-12T18:12:07.719Z,3.45
2022-09-12T18:14:36.297Z,3.00
2022-09-12T18:17:06.947Z,3.03
2022-09-12T18:22:09.553Z,3.58
2022-09-12T18:24:37.767Z,5.28
2022-09-12T18:27:05.955Z,3.72
2022-09-12T18:30:10.420Z,3.05
2022-09-12T18:32:37.555Z,3.92
2022-09-12T18:35:06.798Z,2.60
2022-09-12T18:37:34.955Z,3.05
2022-09-12T18:40:04.221Z,3.92
2022-09-12T18:42:32.556Z,3.30
2022-09-12T18:45:00.716Z,3.17
2022-09-12T18:47:28.942Z,4.13
2022-09-12T18:49:57.151Z,3.20
2022-09-12T18:52:25.319Z,3.55
2022-09-12T18:54:53.540Z,4.07
2022-09-12T18:57:21.732Z,3.00
2022-09-12T18:59:49.964Z,3.60
2022-09-12T19:02:18.164Z,4.38
2022-09-12T19:04:46.460Z,3.65
2022-09-12T19:07:16.848Z,3.50
2022-09-12T19:09:45.028Z,2.85
2022-09-12T19:12:13.201Z,3.50
2022-09-12T19:14:41.397Z,5.45
2022-09-12T19:17:10.051Z,3.20
2022-09-12T19:19:40.557Z,4.00
2022-09-12T19:22:08.945Z,8.80
2022-09-12T19:24:37.155Z,12.05
2022-09-12T19:27:05.614Z,3.78
2022-09-12T19:29:33.777Z,3.65
2022-09-12T19:32:08.705Z,3.47
2022-09-12T19:34:37.024Z,4.60
2022-09-12T19:37:05.227Z,3.95
2022-09-12T19:39:34.367Z,5.07
2022-09-12T19:42:02.586Z,3.88
2022-09-12T19:44:30.971Z,3.88
2022-09-12T19:46:59.263Z,3.20
2022-09-12T19:49:27.428Z,3.55
2022-09-12T19:51:55.635Z,4.40
2022-09-12T19:54:23.832Z,3.30
2022-09-12T19:56:52.245Z,2.63
2022-09-12T19:59:20.615Z,3.95
2022-09-12T20:01:51.993Z,3.17
2022-09-12T20:04:20.223Z,3.75
2022-09-12T20:06:48.401Z,2.63
2022-09-12T20:09:16.639Z,2.92
2022-09-12T20:11:44.993Z,2.75
2022-09-12T20:14:13.267Z,2.70
2022-09-12T20:16:41.469Z,3.25
2022-09-12T20:19:09.988Z,3.45
2022-09-12T20:21:38.300Z,2.40
2022-09-12T20:24:11.860Z,2.88
2022-09-12T20:26:40.557Z,3.97
2022-09-12T20:29:09.988Z,4.70
2022-09-12T20:31:40.989Z,3.60
2022-09-12T20:34:17.282Z,4.75
2022-09-12T20:36:46.504Z,3.97
2022-09-12T20:39:22.167Z,2.97
2022-09-12T20:41:50.576Z,3.85
2022-09-12T20:44:18.948Z,4.05
2022-09-12T20:46:47.169Z,3.25
2022-09-12T20:49:15.341Z,3.85
2022-09-12T20:51:43.371Z,2.53
2022-09-12T20:54:11.842Z,2.92
2022-09-12T20:56:40.052Z,4.45
2022-09-12T20:59:11.201Z,3.75
2022-09-12T21:01:39.675Z,3.95
2022-09-12T21:04:10.711Z,4.95
2022-09-12T21:06:41.216Z,3.28
2022-09-12T21:09:09.410Z,3.42
2022-09-12T21:11:37.629Z,4.10
2022-09-12T21:14:05.875Z,3.08
2022-09-12T21:16:38.497Z,4.55
2022-09-12T21:19:06.911Z,4.13
2022-09-12T21:22:00.847Z,2.95
2022-09-12T21:24:29.536Z,3.05
2022-09-12T21:27:02.176Z,5.57
2022-09-12T21:29:32.264Z,3.65
2022-09-12T21:32:00.493Z,4.90
2022-09-12T21:34:28.686Z,3.08
2022-09-12T21:36:56.828Z,5.10
2022-09-12T21:39:25.198Z,2.85
2022-09-12T21:41:53.698Z,5.85
2022-09-12T21:44:22.220Z,3.67
2022-09-12T21:46:50.510Z,2.55
2022-09-12T21:49:18.890Z,3.05
2022-09-12T21:51:47.104Z,4.18
2022-09-12T21:54:15.306Z,3.78
2022-09-12T21:56:43.565Z,5.53
2022-09-12T21:59:11.802Z,2.75
2022-09-12T22:01:41.069Z,2.92
2022-09-12T22:04:11.430Z,2.58
2022-09-12T22:06:39.737Z,3.88
2022-09-12T22:09:07.912Z,3.45
2022-09-12T22:11:36.082Z,3.22
2022-09-12T22:14:04.563Z,3.70
2022-09-12T22:16:33.715Z,2.90
2022-09-12T22:19:01.980Z,3.17
2022-09-12T22:21:31.286Z,4.47
2022-09-12T22:24:17.769Z,4.07
2022-09-12T22:26:46.485Z,4.55
2022-09-12T22:29:14.798Z,4.38
2022-09-12T22:31:43.130Z,3.03
2022-09-12T22:34:11.493Z,5.25
2022-09-12T22:36:39.966Z,3.15
2022-09-12T22:39:08.562Z,3.33
2022-09-12T22:41:43.948Z,3.60
2022-09-12T22:44:12.248Z,4.00
2022-09-12T22:46:40.698Z,3.90
2022-09-12T22:49:08.963Z,4.82
2022-09-12T22:51:37.391Z,4.07
2022-09-12T22:54:05.972Z,3.22
2022-09-12T22:56:34.364Z,6.53
2022-09-12T22:59:02.475Z,3.03
2022-09-12T23:01:31.790Z,3.30
2022-09-12T23:04:00.299Z,4.78
2022-09-12T23:06:28.549Z,2.58
2022-09-12T23:08:56.692Z,4.85
2022-09-12T23:11:24.953Z,5.38
2022-09-12T23:13:53.339Z,4.22
2022-09-12T23:16:25.565Z,3.33
2022-09-12T23:18:53.997Z,6.15
2022-09-12T23:21:22.505Z,3.92
2022-09-12T23:23:51.153Z,3.40
2022-09-12T23:26:23.994Z,4.30
2022-09-12T23:28:59.732Z,4.60
2022-09-12T23:31:31.958Z,5.65
2022-09-12T23:34:05.739Z,4.28
2022-09-12T23:36:34.331Z,4.60
2022-09-12T23:39:02.940Z,3.28
2022-09-12T23:41:31.416Z,7.05
2022-09-12T23:43:59.285Z,4.53
2022-09-12T23:46:27.554Z,3.42
2022-09-12T23:48:55.729Z,5.03
2022-09-12T23:51:23.871Z,8.27
2022-09-12T23:53:52.280Z,4.03
2022-09-12T23:56:22.012Z,4.30
2022-09-12T23:58:50.299Z,3.85
